Terminal Aerodrome Forecast
Issued by NWS

Home | Current Version | Previous Version | Text Only | Print | Product List | Glossary On
Versions: 1 2 3 4 5 6 7 8 9 10 11 12 13 14 15 16 17
000
FTUS43 KLSX 260900 AAA
TAFSUS
TAF AMD
KSUS 260911Z 2609/2706 31005KT P6SM SCT015
     FM261300 26006KT P6SM BKN015
     FM261800 20006KT P6SM SCT020 BKN080
     FM270100 32007KT P6SM BKN025=

USA.gov is the U.S. government's official web portal to all federal, state and local government web resources and services.